LFRM/LME METAR and TAF weather

Enter ICAO airport designator
Station Type Date Time Source
LFRM METAR 2021/09/16 22:00 UTC NOAA

LFRM 162200Z AUTO VRB02KT CAVOK 14/13 Q1018


Station Type Date Time Source
LFRM Decoded METAR 2021/09/16 22:00 UTC NOAA

Le Mans, France (LFRM) 47-56N 000-12E 52M
Sep 16, 2021 - 06:00 PM EDT / 2021.09.16 2200 UTC
Wind: Variable at 2 MPH (2 KT):0
Visibility: greater than 7 mile(s):0
Temperature: 57 F (14 C)
Dew Point: 55 F (13 C)
Relative Humidity: 93%
Pressure (altimeter): 30.06 in. Hg (1018 hPa)
ob: LFRM 162200Z AUTO VRB02KT CAVOK 14/13 Q1018
cycle: 22

Station Type Date Time Source
LFRM TAF 2021/07/15 06:27 UTC NOAA

TAF TAF LFRM 150500Z 1506/1606 26004KT CAVOK PROB30
TEMPO 1506/1507 3000 BR
BECMG 1508/1510 32010KT
TEMPO 1604/1606 BKN014

Example: see airport list